Time;durP1;ratioP1;P1;durP2;ratioP2;P2;SDS_P1;SDS_P2;PMS_P1;PMS_P2;Temp;Humidity;BMP_temperature;BMP_pressure;BME280_temperature;BME280_humidity;BME280_pressure;Samples;Min_cycle;Max_cycle;Signal;HPM_P1;HPM_P2
2024/02/04 00:01:56;;;;;;;12.75;10.45;;;;;;;1.70;100.00;98231.25;1226137;75;2918554;-62
2024/02/04 00:04:29;;;;;;;9.45;8.05;;;;;;;1.81;100.00;98225.78;1226114;75;2913383;-62
2024/02/04 00:07:02;;;;;;;10.85;8.10;;;;;;;1.65;100.00;98234.41;1225216;75;2923962;-64
2024/02/04 00:09:37;;;;;;;13.60;11.25;;;;;;;1.55;100.00;98213.69;1225208;75;2916606;-64
2024/02/04 00:12:11;;;;;;;10.90;8.70;;;;;;;1.72;100.00;98211.22;1227080;75;2874724;-65
2024/02/04 00:14:44;;;;;;;13.50;10.45;;;;;;;1.30;100.00;98210.47;1226265;75;2913761;-63
2024/02/04 00:17:17;;;;;;;14.25;11.55;;;;;;;1.41;100.00;98200.34;1225850;75;2920605;-64
2024/02/04 00:19:50;;;;;;;14.05;10.85;;;;;;;1.36;100.00;98200.78;1226025;75;2919923;-65
2024/02/04 00:22:22;;;;;;;15.10;11.90;;;;;;;1.02;100.00;98198.78;1225651;75;2922640;-64
2024/02/04 00:25:02;;;;;;;17.65;13.85;;;;;;;0.98;100.00;98214.22;1224780;75;2953038;-63
2024/02/04 00:27:35;;;;;;;17.70;14.05;;;;;;;1.03;100.00;98209.19;1225679;75;2920832;-63
2024/02/04 00:30:10;;;;;;;15.90;11.25;;;;;;;1.25;100.00;98207.06;1225412;75;2917294;-62
2024/02/04 00:32:43;;;;;;;11.95;9.15;;;;;;;1.20;100.00;98204.00;1224821;75;2918448;-63
2024/02/04 00:35:16;;;;;;;9.70;8.10;;;;;;;1.20;100.00;98209.41;1226306;75;2917657;-59
2024/02/04 00:37:49;;;;;;;10.75;9.25;;;;;;;1.15;100.00;98215.22;1226047;75;2930433;-64
2024/02/04 00:40:26;;;;;;;10.50;8.20;;;;;;;1.18;100.00;98215.22;1224793;75;2919612;-62
2024/02/04 00:42:59;;;;;;;13.45;9.15;;;;;;;1.11;100.00;98206.41;1225546;75;2919321;-61
2024/02/04 00:45:32;;;;;;;10.40;7.65;;;;;;;1.11;100.00;98212.56;1224479;75;2931230;-60
2024/02/04 00:48:04;;;;;;;10.10;8.45;;;;;;;1.18;100.00;98219.81;1225720;75;2915792;-63
2024/02/04 00:50:37;;;;;;;11.10;9.15;;;;;;;0.95;100.00;98209.63;1225317;75;2938598;-62
2024/02/04 00:53:10;;;;;;;9.50;7.75;;;;;;;1.06;100.00;98216.47;1225929;75;2923782;-64
2024/02/04 00:55:46;;;;;;;7.65;6.85;;;;;;;1.15;100.00;98205.19;1164207;75;5266671;-64
2024/02/04 00:58:19;;;;;;;7.15;6.40;;;;;;;0.97;100.00;98188.44;1225519;75;2915255;-61
2024/02/04 01:00:52;;;;;;;8.50;6.35;;;;;;;1.02;100.00;98188.75;1225099;75;2918027;-61
2024/02/04 01:03:25;;;;;;;8.85;6.15;;;;;;;1.00;100.00;98184.94;1225608;75;2922918;-63
2024/02/04 01:05:58;;;;;;;7.55;6.30;;;;;;;1.02;100.00;98190.69;1226122;75;2915777;-65
2024/02/04 01:08:31;;;;;;;10.35;7.75;;;;;;;0.82;100.00;98180.47;1225218;75;2922814;-63
2024/02/04 01:11:09;;;;;;;12.50;10.05;;;;;;;0.66;100.00;98192.91;1225350;75;2919534;-62
2024/02/04 01:13:42;;;;;;;;;;;;;;;0.67;100.00;98199.81;1226256;75;2921230;-63
2024/02/04 01:16:15;;;;;;;15.05;10.80;;;;;;;0.67;100.00;98181.72;1225101;75;2919629;-64
2024/02/04 01:18:47;;;;;;;15.25;11.05;;;;;;;0.67;100.00;98189.78;1225391;75;2913540;-62
2024/02/04 01:21:20;;;;;;;13.00;9.85;;;;;;;0.80;100.00;98200.88;1225330;75;2919412;-62
2024/02/04 01:23:53;;;;;;;12.25;9.35;;;;;;;0.76;100.00;98208.97;1221967;75;2945502;-63
2024/02/04 01:26:28;;;;;;;12.40;9.05;;;;;;;0.90;100.00;98205.41;1225136;75;2915749;-65
2024/02/04 01:29:01;;;;;;;14.05;9.80;;;;;;;0.62;100.00;98209.84;1225035;75;2918709;-65
2024/02/04 01:31:34;;;;;;;12.60;10.30;;;;;;;0.72;100.00;98208.25;1222693;75;2925203;-63
2024/02/04 01:34:07;;;;;;;10.55;8.25;;;;;;;0.79;100.00;98210.13;1225870;75;2920419;-65
2024/02/04 01:36:40;;;;;;;8.80;7.70;;;;;;;0.75;100.00;98210.16;1224752;75;2917051;-62
2024/02/04 01:39:13;;;;;;;8.85;7.25;;;;;;;0.71;100.00;98206.72;1150454;75;9002702;-65
2024/02/04 01:41:50;;;;;;;6.90;5.55;;;;;;;0.72;100.00;98212.84;1224646;75;2868243;-63
2024/02/04 01:44:23;;;;;;;8.25;6.50;;;;;;;0.64;100.00;98209.44;1224668;75;2919981;-66
2024/02/04 01:46:57;;;;;;;11.00;8.60;;;;;;;0.57;100.00;98220.28;1208653;75;4077326;-63
2024/02/04 01:49:30;;;;;;;18.15;13.55;;;;;;;0.29;100.00;98213.91;1224213;67;2926092;-62
2024/02/04 01:52:04;;;;;;;14.70;12.00;;;;;;;0.52;100.00;98205.28;1222694;75;2926035;-63
2024/02/04 01:54:40;;;;;;;14.95;11.80;;;;;;;0.52;100.00;98202.59;1195847;75;5117047;-65
2024/02/04 01:57:17;;;;;;;14.20;10.00;;;;;;;0.72;100.00;98194.00;1222668;75;2915305;-62
2024/02/04 01:59:51;;;;;;;10.35;7.80;;;;;;;0.82;100.00;98207.41;1226311;75;2864277;-63
2024/02/04 02:02:24;;;;;;;11.15;9.05;;;;;;;0.59;100.00;98212.56;1220831;75;2931107;-64
2024/02/04 02:04:57;;;;;;;14.65;11.10;;;;;;;0.49;100.00;98191.84;1223666;75;2915688;-61
2024/02/04 02:07:30;;;;;;;12.60;10.30;;;;;;;0.61;100.00;98196.78;1222678;75;2918829;-64
2024/02/04 02:10:10;;;;;;;12.25;9.35;;;;;;;0.76;100.00;98190.13;1224486;75;2932462;-63
2024/02/04 02:12:53;;;;;;;10.45;8.10;;;;;;;0.81;100.00;98178.91;1225168;75;2920615;-64
2024/02/04 02:15:30;;;;;;;14.85;11.20;;;;;;;0.55;100.00;98160.63;1225618;75;2918033;-65
2024/02/04 02:18:08;;;;;;;12.80;9.75;;;;;;;0.73;100.00;98166.66;1223574;75;2997967;-63
2024/02/04 02:21:14;;;;;;;7.70;6.50;;;;;;;0.73;100.00;98190.16;1224910;75;2864361;-63
2024/02/04 02:24:04;;;;;;;13.30;10.30;;;;;;;0.52;100.00;98191.06;1225101;75;2918158;-62
2024/02/04 02:26:43;;;;;;;14.55;10.60;;;;;;;0.49;100.00;98178.41;1225262;75;2913265;-63
2024/02/04 02:29:16;;;;;;;12.45;10.05;;;;;;;0.54;100.00;98172.59;1225042;75;2921863;-63
2024/02/04 02:31:50;;;;;;;9.95;7.95;;;;;;;0.60;100.00;98174.47;1224332;75;2974878;-65
2024/02/04 02:34:22;;;;;;;11.90;9.40;;;;;;;0.51;100.00;98181.47;1222462;75;2899428;-61
2024/02/04 02:37:05;;;;;;;12.70;9.40;;;;;;;0.33;100.00;98176.16;1226717;75;2843929;-63
2024/02/04 02:39:49;;;;;;;16.80;13.00;;;;;;;0.22;100.00;98181.63;1224939;75;2910095;-64
2024/02/04 02:42:27;;;;;;;14.85;11.45;;;;;;;0.48;100.00;98179.53;1224123;75;2918691;-64
2024/02/04 02:45:01;;;;;;;13.80;10.20;;;;;;;0.45;100.00;98191.88;1225319;75;2917990;-65
2024/02/04 02:47:35;;;;;;;10.45;8.20;;;;;;;0.59;100.00;98188.31;1224881;75;2921451;-64
2024/02/04 02:50:11;;;;;;;9.75;7.75;;;;;;;0.44;100.00;98176.88;1225332;75;2916892;-65
2024/02/04 02:52:43;;;;;;;9.30;7.55;;;;;;;0.47;100.00;98178.00;1224386;75;2926979;-62
2024/02/04 02:55:16;;;;;;;11.60;8.35;;;;;;;0.39;100.00;98172.69;1225080;75;2925216;-62
2024/02/04 02:57:52;;;;;;;9.65;7.10;;;;;;;0.44;100.00;98173.44;1225786;75;2914427;-60
2024/02/04 03:00:25;;;;;;;9.70;7.30;;;;;;;0.43;100.00;98178.03;1225705;75;2918778;-66
2024/02/04 03:02:58;;;;;;;10.75;8.15;;;;;;;0.19;100.00;98175.09;1225334;75;2922803;-64
2024/02/04 03:05:31;;;;;;;11.50;7.75;;;;;;;0.35;100.00;98171.16;1224341;75;2923563;-62
2024/02/04 03:08:04;;;;;;;9.70;6.35;;;;;;;0.39;100.00;98169.97;1225137;75;2940812;-58
2024/02/04 03:10:37;;;;;;;9.00;6.55;;;;;;;0.36;100.00;98175.38;1224378;75;2920901;-64
2024/02/04 03:13:12;;;;;;;12.05;9.00;;;;;;;0.11;100.00;98173.59;1225801;75;2926635;-62
2024/02/04 03:15:45;;;;;;;11.50;8.60;;;;;;;0.18;100.00;98197.78;1224951;75;2916447;-62
2024/02/04 03:18:18;;;;;;;16.10;11.40;;;;;;;0.12;100.00;98185.13;1224905;75;2928966;-64
2024/02/04 03:20:50;;;;;;;12.35;9.75;;;;;;;0.27;100.00;98183.91;1225337;75;2920531;-63
2024/02/04 03:23:23;;;;;;;12.60;9.80;;;;;;;0.32;100.00;98178.09;1224976;75;2918671;-59
2024/02/04 03:25:56;;;;;;;10.55;7.95;;;;;;;0.33;100.00;98179.63;1225343;75;2918126;-62
2024/02/04 03:28:31;;;;;;;11.10;8.40;;;;;;;0.34;100.00;98165.00;1225896;75;2917315;-64
2024/02/04 03:31:04;;;;;;;16.95;12.20;;;;;;;0.19;100.00;98150.88;1225236;75;2919831;-62
2024/02/04 03:33:37;;;;;;;12.50;9.85;;;;;;;0.30;100.00;98158.88;1222246;75;3096933;-62
2024/02/04 03:36:11;;;;;;;11.30;8.60;;;;;;;0.35;100.00;98150.38;1226062;75;2917649;-62
2024/02/04 03:38:44;;;;;;;11.25;8.10;;;;;;;0.27;100.00;98150.84;1224870;75;2918706;-62
2024/02/04 03:41:17;;;;;;;14.40;11.15;;;;;;;0.09;100.00;98148.22;1225427;75;2927432;-61
2024/02/04 03:43:52;;;;;;;15.45;11.45;;;;;;;0.27;100.00;98131.97;1226516;75;2924333;-64
2024/02/04 03:46:25;;;;;;;12.95;10.00;;;;;;;0.37;100.00;98137.28;1224872;75;2919851;-65
2024/02/04 03:48:58;;;;;;;12.00;9.10;;;;;;;0.42;100.00;98155.72;1225226;75;2932514;-61
2024/02/04 03:51:31;;;;;;;16.55;12.35;;;;;;;0.14;100.00;98139.75;1225631;75;2921427;-63
2024/02/04 03:54:03;;;;;;;16.30;13.10;;;;;;;0.40;100.00;98133.78;1224674;75;2916338;-63
2024/02/04 03:56:36;;;;;;;15.80;11.75;;;;;;;0.33;100.00;98147.31;1224597;75;2930091;-64
2024/02/04 03:59:12;;;;;;;16.35;12.10;;;;;;;0.33;100.00;98138.47;1226154;75;2921115;-63
2024/02/04 04:01:53;;;;;;;15.60;11.90;;;;;;;0.33;100.00;98133.84;1224918;75;2923674;-62
2024/02/04 04:04:26;;;;;;;18.00;13.30;;;;;;;0.30;100.00;98169.66;1224750;75;2922014;-67
2024/02/04 04:06:58;;;;;;;20.10;13.70;;;;;;;0.38;100.00;98157.66;1226177;75;2913776;-59
2024/02/04 04:09:31;;;;;;;17.45;12.90;;;;;;;0.20;100.00;98165.09;1225318;75;2920125;-63
2024/02/04 04:12:04;;;;;;;16.70;12.40;;;;;;;0.27;100.00;98161.59;1225328;75;2921023;-59
2024/02/04 04:14:39;;;;;;;18.05;13.55;;;;;;;0.01;100.00;98157.50;1225567;75;2929702;-58
2024/02/04 04:17:12;;;;;;;22.20;15.85;;;;;;;0.09;100.00;98173.22;1225389;75;2937690;-61
2024/02/04 04:19:45;;;;;;;23.45;17.15;;;;;;;0.13;100.00;98160.50;1224462;75;2915213;-63
2024/02/04 04:22:18;;;;;;;20.80;14.70;;;;;;;0.30;100.00;98155.44;1225382;75;2915463;-61
2024/02/04 04:24:51;;;;;;;20.05;15.60;;;;;;;0.16;100.00;98165.09;1225613;75;2918767;-61
2024/02/04 04:27:24;;;;;;;23.15;15.65;;;;;;;0.34;100.00;98175.78;1224704;75;2926036;-63
2024/02/04 04:29:59;;;;;;;19.60;14.15;;;;;;;0.51;100.00;98184.91;1224910;75;2914881;-64
2024/02/04 04:32:32;;;;;;;19.30;14.15;;;;;;;0.29;100.00;98192.38;1225227;75;2916338;-62
2024/02/04 04:35:05;;;;;;;18.40;14.40;;;;;;;0.41;100.00;98173.06;1224932;75;2925398;-65
2024/02/04 04:37:38;;;;;;;16.45;12.40;;;;;;;0.62;100.00;98182.13;1225111;75;2923840;-62
2024/02/04 04:40:13;;;;;;;23.55;16.30;;;;;;;0.28;100.00;98171.97;1225817;75;2922743;-61
2024/02/04 04:42:46;;;;;;;20.90;14.90;;;;;;;0.46;100.00;98169.19;1224669;75;2926428;-62
2024/02/04 04:45:21;;;;;;;17.10;12.65;;;;;;;0.51;100.00;98178.78;1225501;75;2921898;-64
2024/02/04 04:47:54;;;;;;;15.45;11.05;;;;;;;0.64;100.00;98177.88;1223732;75;2928435;-61
2024/02/04 04:50:27;;;;;;;13.80;10.30;;;;;;;0.68;100.00;98169.78;1222359;75;3025889;-64
2024/02/04 04:53:00;;;;;;;18.10;13.70;;;;;;;0.54;100.00;98161.81;1225238;75;2921263;-61
2024/02/04 04:55:32;;;;;;;19.10;13.65;;;;;;;0.42;100.00;98173.81;1224398;75;2919308;-63
2024/02/04 04:58:06;;;;;;;19.75;14.45;;;;;;;0.46;100.00;98163.00;1224900;75;2920055;-60
2024/02/04 05:00:41;;;;;;;18.05;13.65;;;;;;;0.59;100.00;98166.78;1224886;75;2919398;-61
2024/02/04 05:03:14;;;;;;;16.65;11.95;;;;;;;0.63;100.00;98164.81;1224358;75;2948188;-61
2024/02/04 05:05:47;;;;;;;12.75;10.15;;;;;;;0.65;100.00;98165.19;1224703;75;2925859;-63
2024/02/04 05:08:20;;;;;;;16.10;11.75;;;;;;;0.49;100.00;98171.06;1225147;75;2915492;-63
2024/02/04 05:10:53;;;;;;;17.15;13.00;;;;;;;0.58;100.00;98184.88;1223838;75;2929927;-60
2024/02/04 05:13:26;;;;;;;14.85;11.05;;;;;;;0.51;100.00;98189.53;1225306;75;2923916;-63
2024/02/04 05:16:01;;;;;;;14.50;11.70;;;;;;;0.42;100.00;98190.72;1224638;75;2921607;-62
2024/02/04 05:18:34;;;;;;;14.75;10.45;;;;;;;0.64;100.00;98204.06;1224675;75;2921406;-61
2024/02/04 05:21:08;;;;;;;15.30;9.95;;;;;;;0.66;100.00;98204.44;1224198;75;2922453;-62
2024/02/04 05:23:41;;;;;;;18.55;12.65;;;;;;;0.45;100.00;98191.09;1224565;75;2920949;-61
2024/02/04 05:26:14;;;;;;;15.40;12.50;;;;;;;0.42;100.00;98181.88;1225104;75;2920301;-61
2024/02/04 05:28:47;;;;;;;17.55;13.25;;;;;;;0.42;100.00;98188.03;1224763;75;2948607;-61
2024/02/04 05:31:22;;;;;;;15.80;12.15;;;;;;;0.58;100.00;98202.97;1224543;75;2931956;-62
2024/02/04 05:33:56;;;;;;;26.70;19.05;;;;;;;0.16;100.00;98185.88;1225595;75;2926796;-61
2024/02/04 05:36:29;;;;;;;24.60;18.30;;;;;;;0.23;100.00;98180.47;1225297;75;2927918;-62
2024/02/04 05:39:13;;;;;;;26.00;19.60;;;;;;;-0.13;100.00;98175.25;1224808;75;2923954;-64
2024/02/04 05:41:47;;;;;;;23.50;17.05;;;;;;;0.03;100.00;98192.88;1225176;75;2927125;-62
2024/02/04 05:44:19;;;;;;;17.40;12.85;;;;;;;0.24;100.00;98178.53;1224892;75;2926001;-60
2024/02/04 05:46:55;;;;;;;17.35;13.65;;;;;;;0.26;100.00;98186.97;1224053;75;2933275;-65
2024/02/04 05:49:28;;;;;;;17.70;12.60;;;;;;;0.34;100.00;98197.34;1224604;75;2920557;-65
2024/02/04 05:52:00;;;;;;;13.40;10.65;;;;;;;0.42;100.00;98201.50;1224935;75;2921894;-63
2024/02/04 05:54:33;;;;;;;13.45;10.15;;;;;;;0.37;100.00;98209.25;1224824;75;2917319;-61
2024/02/04 05:57:06;;;;;;;23.15;15.15;;;;;;;0.18;100.00;98202.41;1225424;75;2915786;-63
2024/02/04 05:59:39;;;;;;;19.25;13.70;;;;;;;0.34;100.00;98201.97;1223691;75;2917605;-61
2024/02/04 06:02:14;;;;;;;15.20;11.90;;;;;;;0.47;100.00;98186.09;1224010;75;2936123;-62
2024/02/04 06:04:48;;;;;;;18.85;13.00;;;;;;;0.28;100.00;98187.34;1224360;75;2914509;-64
2024/02/04 06:07:21;;;;;;;15.65;11.60;;;;;;;0.41;100.00;98183.06;1224826;75;2917149;-59
2024/02/04 06:09:55;;;;;;;13.00;10.60;;;;;;;0.37;100.00;98190.38;1224949;75;2918866;-64
2024/02/04 06:12:28;;;;;;;22.95;16.85;;;;;;;0.15;100.00;98198.59;1223829;75;2917291;-62
2024/02/04 06:15:01;;;;;;;23.75;17.80;;;;;;;0.15;100.00;98189.75;1225094;75;2930288;-63
2024/02/04 06:17:36;;;;;;;22.95;17.30;;;;;;;0.40;100.00;98205.75;1224763;75;2923364;-65
2024/02/04 06:20:10;;;;;;;18.65;14.85;;;;;;;0.43;100.00;98218.41;1225039;75;2921430;-61
2024/02/04 06:22:44;;;;;;;17.35;13.50;;;;;;;0.50;100.00;98229.16;1224074;75;2923844;-63
2024/02/04 06:25:17;;;;;;;21.40;15.20;;;;;;;0.53;100.00;98227.59;1224804;75;2925287;-64
2024/02/04 06:27:50;;;;;;;18.25;14.30;;;;;;;0.47;100.00;98223.81;1224520;75;2925585;-64
2024/02/04 06:30:22;;;;;;;19.15;14.40;;;;;;;0.28;100.00;98238.53;1224779;75;2922521;-62
2024/02/04 06:32:58;;;;;;;23.40;17.50;;;;;;;0.03;100.00;98246.72;1224194;75;2924604;-61
2024/02/04 06:35:31;;;;;;;24.80;18.45;;;;;;;0.14;100.00;98221.25;1223624;75;2918247;-63
2024/02/04 06:38:04;;;;;;;23.55;17.00;;;;;;;0.37;100.00;98236.94;1224192;75;2921243;-63
2024/02/04 06:40:37;;;;;;;20.80;14.10;;;;;;;0.42;100.00;98233.06;1223061;75;2928799;-61
2024/02/04 06:43:10;;;;;;;19.90;13.40;;;;;;;0.52;100.00;98224.16;1225006;75;2918038;-63
2024/02/04 06:45:43;;;;;;;18.50;13.95;;;;;;;0.64;100.00;98226.38;1223873;75;2933637;-65
2024/02/04 06:48:22;;;;;;;17.00;11.90;;;;;;;0.73;100.00;98228.66;1225681;75;2917734;-61
2024/02/04 06:50:54;;;;;;;13.35;11.15;;;;;;;0.67;100.00;98226.75;1224999;75;2920313;-58
2024/02/04 06:53:27;;;;;;;14.65;11.80;;;;;;;0.90;100.00;98245.09;1224744;75;2923518;-60
2024/02/04 06:56:00;;;;;;;12.50;9.85;;;;;;;1.01;100.00;98267.31;1187363;75;5298817;-62
2024/02/04 06:58:33;;;;;;;24.05;17.00;;;;;;;0.71;100.00;98276.00;1224355;75;2929218;-63
2024/02/04 07:01:06;;;;;;;23.15;17.55;;;;;;;0.72;100.00;98267.53;1225719;75;2917206;-62
2024/02/04 07:03:41;;;;;;;25.70;17.95;;;;;;;0.86;100.00;98255.88;1225010;75;2913566;-64
2024/02/04 07:06:14;;;;;;;26.05;19.25;;;;;;;1.03;100.00;98265.00;1224292;75;2922085;-63
2024/02/04 07:08:47;;;;;;;22.20;17.15;;;;;;;1.04;100.00;98253.84;1224847;75;2915017;-61
2024/02/04 07:11:20;;;;;;;23.30;17.00;;;;;;;2.24;100.00;98262.31;1225957;75;2919512;-64
2024/02/04 07:13:58;;;;;;;23.70;17.80;;;;;;;1.65;100.00;98272.19;1224681;75;2921222;-60
2024/02/04 07:16:31;;;;;;;28.00;21.10;;;;;;;4.14;100.00;98272.88;1224219;75;2924730;-61
2024/02/04 07:19:06;;;;;;;29.35;19.25;;;;;;;1.71;100.00;98259.03;1225375;75;2922229;-62
2024/02/04 07:21:39;;;;;;;25.15;20.95;;;;;;;1.76;100.00;98263.25;1225660;75;2918265;-62
2024/02/04 07:24:12;;;;;;;21.45;17.70;;;;;;;2.27;100.00;98272.31;1224843;75;2929418;-62
2024/02/04 07:26:45;;;;;;;17.75;14.95;;;;;;;2.42;100.00;98279.06;1225640;75;2919891;-64
2024/02/04 07:29:18;;;;;;;20.05;16.70;;;;;;;2.24;100.00;98268.47;1225093;75;2922895;-61
2024/02/04 07:31:51;;;;;;;28.00;20.00;;;;;;;1.83;100.00;98285.53;1224126;75;2921212;-63
2024/02/04 07:34:26;;;;;;;30.65;23.05;;;;;;;1.62;100.00;98264.13;1224296;75;2924166;-60
2024/02/04 07:36:59;;;;;;;25.50;18.65;;;;;;;2.09;100.00;98273.28;1225621;75;2921688;-60
2024/02/04 07:39:32;;;;;;;23.95;18.20;;;;;;;2.00;100.00;98273.00;1224258;75;2949005;-64
2024/02/04 07:42:05;;;;;;;25.60;19.75;;;;;;;2.04;100.00;98259.44;1225262;75;2888673;-64
2024/02/04 07:44:37;;;;;;;22.65;18.15;;;;;;;2.22;100.00;98237.66;1225117;75;2923174;-63
2024/02/04 07:47:11;;;;;;;21.10;17.70;;;;;;;2.15;100.00;98246.59;1221463;67;2972087;-59
2024/02/04 07:49:46;;;;;;;20.40;16.25;;;;;;;2.58;100.00;98248.75;1221390;75;2950985;-60
2024/02/04 07:52:19;;;;;;;15.65;13.75;;;;;;;2.72;100.00;98256.66;1224857;75;2925672;-64
2024/02/04 07:54:52;;;;;;;21.95;17.55;;;;;;;2.30;100.00;98252.59;1224274;75;2921631;-62
2024/02/04 07:57:25;;;;;;;19.70;15.80;;;;;;;2.56;100.00;98262.66;1224077;75;2922718;-64
2024/02/04 07:59:58;;;;;;;17.05;15.05;;;;;;;2.71;100.00;98273.28;1224480;75;2918895;-63
2024/02/04 08:02:30;;;;;;;26.05;21.10;;;;;;;2.07;100.00;98274.88;1224296;75;2924350;-60
2024/02/04 08:05:06;;;;;;;27.25;22.65;;;;;;;2.13;100.00;98265.91;1224872;75;2921626;-62
2024/02/04 08:07:40;;;;;;;24.45;20.90;;;;;;;2.37;100.00;98263.31;1226014;75;2920345;-61
2024/02/04 08:10:15;;;;;;;26.00;18.85;;;;;;;2.64;100.00;98257.16;1224654;75;2929089;-63
2024/02/04 08:12:50;;;;;;;25.40;20.80;;;;;;;2.70;100.00;98252.84;1225250;75;2924417;-63
2024/02/04 08:15:23;;;;;;;28.15;21.85;;;;;;;2.67;100.00;98250.94;1223410;75;2923830;-64
2024/02/04 08:17:56;;;;;;;26.85;22.30;;;;;;;2.99;100.00;98250.47;1224576;75;2920636;-65
2024/02/04 08:20:32;;;;;;;24.95;20.90;;;;;;;3.10;100.00;98259.22;1225121;75;2919850;-62
2024/02/04 08:23:05;;;;;;;25.10;21.30;;;;;;;3.31;100.00;98252.66;1224767;75;2929203;-62
2024/02/04 08:25:38;;;;;;;20.20;17.05;;;;;;;3.42;100.00;98245.13;1224462;75;2922148;-61
2024/02/04 08:28:10;;;;;;;18.05;15.00;;;;;;;3.82;100.00;98241.72;1225070;75;2924538;-62
2024/02/04 08:30:43;;;;;;;18.65;14.65;;;;;;;3.70;100.00;98267.47;1224517;75;2921618;-62
2024/02/04 08:33:17;;;;;;;22.70;20.10;;;;;;;3.40;100.00;98250.19;1225181;75;2925391;-66
2024/02/04 08:35:53;;;;;;;22.80;18.90;;;;;;;3.53;100.00;98253.06;1225347;75;2918835;-67
2024/02/04 08:38:26;;;;;;;23.70;19.90;;;;;;;3.57;100.00;98250.31;1225080;75;2941060;-64
2024/02/04 08:40:59;;;;;;;22.40;18.95;;;;;;;3.73;100.00;98253.13;1224646;75;2924601;-63
2024/02/04 08:43:31;;;;;;;20.10;16.65;;;;;;;3.92;100.00;98264.38;1224778;75;2922321;-65
2024/02/04 08:46:08;;;;;;;25.45;21.35;;;;;;;3.62;100.00;98247.13;1224978;75;2922086;-63
2024/02/04 08:48:41;;;;;;;24.60;19.75;;;;;;;3.77;100.00;98248.38;1224728;75;2924162;-60
2024/02/04 08:51:18;;;;;;;29.05;22.50;;;;;;;3.34;100.00;98259.19;1224953;75;2925050;-62
2024/02/04 08:53:51;;;;;;;39.10;28.40;;;;;;;3.54;100.00;98241.06;1224995;75;2918280;-65
2024/02/04 08:56:24;;;;;;;42.25;30.90;;;;;;;3.39;100.00;98253.31;1224557;75;2919549;-64
2024/02/04 08:58:57;;;;;;;41.50;29.70;;;;;;;3.48;100.00;98260.91;1224900;75;2924030;-63
2024/02/04 09:01:30;;;;;;;31.85;24.75;;;;;;;3.96;100.00;98263.13;1224332;75;2922612;-62
2024/02/04 09:04:02;;;;;;;25.65;20.50;;;;;;;4.29;100.00;98279.53;1224696;75;2921265;-63
2024/02/04 09:06:38;;;;;;;22.45;17.85;;;;;;;4.60;100.00;98263.78;1225107;75;2921849;-61
2024/02/04 09:09:11;;;;;;;25.65;20.40;;;;;;;4.26;100.00;98261.41;1224809;75;2917097;-62
2024/02/04 09:11:43;;;;;;;29.85;23.70;;;;;;;3.78;100.00;98270.84;1224648;75;2920724;-62
2024/02/04 09:14:16;;;;;;;29.70;24.40;;;;;;;3.71;100.00;98246.59;1225332;75;2909772;-61
2024/02/04 09:16:49;;;;;;;24.40;20.50;;;;;;;4.74;100.00;98246.44;1225432;75;2916520;-63
2024/02/04 09:19:22;;;;;;;21.40;18.70;;;;;;;4.98;100.00;98246.28;1224808;75;2920586;-67
2024/02/04 09:21:57;;;;;;;17.35;14.85;;;;;;;5.56;100.00;98243.72;1223994;75;2917734;-63
2024/02/04 09:24:33;;;;;;;15.70;13.20;;;;;;;5.85;100.00;98249.16;1224395;75;2923686;-61
2024/02/04 09:27:06;;;;;;;18.50;14.50;;;;;;;5.82;100.00;98239.16;1225498;75;2924900;-63
2024/02/04 09:29:39;;;;;;;22.95;17.05;;;;;;;6.00;100.00;98240.66;1224829;75;2917241;-62
2024/02/04 09:32:12;;;;;;;20.95;17.35;;;;;;;6.34;100.00;98243.56;1224529;75;2919024;-63
2024/02/04 09:34:44;;;;;;;18.75;14.50;;;;;;;6.79;96.49;98231.75;1224696;75;2920887;-61
2024/02/04 09:37:20;;;;;;;34.20;24.80;;;;;;;7.30;93.15;98235.63;1225210;75;2915825;-62
2024/02/04 09:39:53;;;;;;;26.80;19.60;;;;;;;7.70;87.68;98219.47;1224287;75;2918949;-60
2024/02/04 09:42:28;;;;;;;26.50;20.00;;;;;;;8.15;84.92;98217.50;1224380;75;2917340;-64
2024/02/04 09:45:00;;;;;;;23.20;17.30;;;;;;;9.24;81.14;98230.13;1224253;75;2923564;-63
2024/02/04 09:47:35;;;;;;;21.35;14.45;;;;;;;9.58;77.56;98239.28;1223437;75;2928182;-61
2024/02/04 09:50:09;;;;;;;24.70;17.10;;;;;;;9.59;76.34;98227.88;1224819;75;2920376;-64
2024/02/04 09:52:49;;;;;;;27.80;19.65;;;;;;;8.43;79.88;98227.41;1224598;75;2922265;-63
2024/02/04 09:55:24;;;;;;;24.20;17.15;;;;;;;9.89;74.32;98217.25;1224132;75;2921923;-64
2024/02/04 09:57:57;;;;;;;23.20;16.70;;;;;;;9.49;75.97;98229.09;1225005;75;2919967;-61
2024/02/04 10:00:32;;;;;;;20.45;14.80;;;;;;;10.64;72.03;98224.88;1225359;75;2922656;-63
2024/02/04 10:03:07;;;;;;;24.45;16.65;;;;;;;10.16;70.55;98216.47;1224199;75;2919363;-61
2024/02/04 10:05:40;;;;;;;25.15;17.35;;;;;;;9.54;73.72;98230.47;1224528;75;2918487;-63
2024/02/04 10:08:16;;;;;;;23.20;16.65;;;;;;;10.34;73.70;98237.59;1224716;75;2922982;-62
2024/02/04 10:10:49;;;;;;;19.75;14.50;;;;;;;11.10;69.62;98226.66;1224107;75;2915546;-63
2024/02/04 10:13:24;;;;;;;22.25;17.20;;;;;;;11.02;68.68;98225.47;1224462;75;2912677;-64
2024/02/04 10:15:57;;;;;;;19.65;13.75;;;;;;;11.52;67.67;98243.00;1225260;75;2913245;-64
2024/02/04 10:18:29;;;;;;;19.15;12.35;;;;;;;12.42;67.50;98223.94;1225251;75;2925803;-63
2024/02/04 10:21:02;;;;;;;18.35;13.20;;;;;;;12.11;64.63;98222.41;1224634;75;2924025;-65
2024/02/04 10:23:38;;;;;;;14.15;10.65;;;;;;;13.61;61.81;98222.41;1223845;75;2921410;-62
2024/02/04 10:26:11;;;;;;;17.35;12.90;;;;;;;13.09;62.25;98213.97;1224815;75;2921601;-61
2024/02/04 10:28:44;;;;;;;22.05;15.90;;;;;;;12.26;63.68;98203.22;1224794;75;2918577;-65
2024/02/04 10:31:17;;;;;;;20.00;14.90;;;;;;;11.97;65.78;98207.44;1224836;75;2914299;-65
2024/02/04 10:33:49;;;;;;;14.00;11.20;;;;;;;14.19;60.02;98196.97;1225422;75;2928366;-62
2024/02/04 10:36:22;;;;;;;15.80;12.40;;;;;;;16.14;55.49;98184.72;1224708;75;2921317;-60
2024/02/04 10:38:58;;;;;;;18.40;13.05;;;;;;;16.40;55.38;98170.69;1224296;75;2919027;-64
2024/02/04 10:41:32;;;;;;;19.45;14.15;;;;;;;16.37;53.66;98151.56;1224473;75;2922794;-66
2024/02/04 10:44:08;;;;;;;13.95;10.40;;;;;;;17.15;52.05;98155.47;1224222;75;2928459;-62
2024/02/04 10:46:43;;;;;;;13.70;10.60;;;;;;;18.31;49.34;98155.31;1224763;75;2919283;-62
2024/02/04 10:49:18;;;;;;;13.80;10.40;;;;;;;18.23;50.06;98140.53;1225227;75;2920395;-63
2024/02/04 10:51:52;;;;;;;13.10;8.75;;;;;;;17.94;50.41;98130.91;1224230;75;2913441;-62
2024/02/04 10:54:31;;;;;;;11.60;8.40;;;;;;;18.64;47.86;98138.91;1224677;75;2919817;-62
2024/02/04 10:57:06;;;;;;;;;;;;;;;20.20;46.34;98138.22;1226241;83;2923363;-61
2024/02/04 10:59:40;;;;;;;15.10;10.80;;;;;;;19.37;47.07;98133.31;1225914;75;2914104;-62
2024/02/04 11:02:14;;;;;;;13.95;10.75;;;;;;;18.72;48.10;98134.28;1224680;75;2923170;-65
2024/02/04 11:04:49;;;;;;;17.20;11.10;;;;;;;17.90;49.37;98135.25;1225755;75;2916210;-61
2024/02/04 11:07:23;;;;;;;13.90;9.80;;;;;;;18.70;47.44;98126.50;1225154;75;2914814;-62
2024/02/04 11:10:00;;;;;;;14.00;10.40;;;;;;;19.04;46.46;98128.19;1225070;75;2922745;-63
2024/02/04 11:12:36;;;;;;;15.05;10.00;;;;;;;19.47;47.48;98132.94;1225620;75;2934927;-62
2024/02/04 11:15:13;;;;;;;12.40;8.90;;;;;;;20.32;45.19;98122.09;1225549;75;2915259;-65
2024/02/04 11:18:24;;;;;;;13.10;8.80;;;;;;;18.91;46.29;98124.03;1223845;75;2921453;-65
2024/02/04 11:21:33;;;;;;;12.95;9.40;;;;;;;19.20;46.00;98112.59;1225896;75;2925421;-63
2024/02/04 11:24:25;;;;;;;10.80;7.60;;;;;;;20.94;44.07;98109.88;1225366;75;2911201;-63
2024/02/04 11:27:02;;;;;;;13.95;9.40;;;;;;;19.61;45.04;98106.75;1225622;75;2914694;-64
2024/02/04 11:29:35;;;;;;;10.60;8.30;;;;;;;20.85;43.67;98099.94;1224106;75;2926907;-64
2024/02/04 11:32:10;;;;;;;11.80;8.75;;;;;;;20.81;44.08;98091.16;1225830;75;2915120;-63
2024/02/04 11:34:42;;;;;;;10.95;8.75;;;;;;;21.61;41.34;98079.13;1224391;75;2933173;-61
2024/02/04 11:37:23;;;;;;;13.55;10.65;;;;;;;21.07;42.27;98078.50;1225772;75;2917758;-64